Time;durP1;ratioP1;P1;durP2;ratioP2;P2;SDS_P1;SDS_P2;PMS_P1;PMS_P2;Temp;Humidity;BMP_temperature;BMP_pressure;BME280_temperature;BME280_humidity;BME280_pressure;Samples;Min_cycle;Max_cycle;Signal;HPM_P1;HPM_P2
2022/10/08 00:01:20;;;;;;;10.35;3.90;;;;;;;;;;5046444;28;20117;-76
2022/10/08 00:03:50;;;;;;;8.85;3.47;;;;;;;;;;5060921;28;20424;-76
2022/10/08 00:06:21;;;;;;;14.18;4.45;;;;;;;;;;5046175;28;20032;-76
2022/10/08 00:08:48;;;;;;;13.10;4.93;;;;;;;;;;5045564;28;20495;-77
2022/10/08 00:11:16;;;;;;;7.35;4.10;;;;;;;;;;5043470;28;20051;-76
2022/10/08 00:13:43;;;;;;;8.77;3.70;;;;;;;;;;5047220;28;20020;-76
2022/10/08 00:16:14;;;;;;;14.88;4.63;;;;;;;;;;5062552;28;20032;-76
2022/10/08 00:18:41;;;;;;;7.00;3.65;;;;;;;;;;5064276;28;20438;-76
2022/10/08 00:21:13;;;;;;;10.70;3.67;;;;;;;;;;5055865;28;20106;-76
2022/10/08 00:23:39;;;;;;;7.65;3.25;;;;;;;;;;5062612;28;20021;-76
2022/10/08 00:26:06;;;;;;;11.02;3.45;;;;;;;;;;5057799;28;20080;-76
2022/10/08 00:28:33;;;;;;;13.23;4.03;;;;;;;;;;5062399;28;20029;-76
2022/10/08 00:31:05;;;;;;;9.35;3.28;;;;;;;;;;5060665;28;20036;-76
2022/10/08 00:33:33;;;;;;;7.35;3.05;;;;;;;;;;5041089;28;20020;-76
2022/10/08 00:36:05;;;;;;;17.13;3.80;;;;;;;;;;5067917;28;20733;-76
2022/10/08 00:38:32;;;;;;;12.82;4.55;;;;;;;;;;5064165;28;20056;-76
2022/10/08 00:40:59;;;;;;;9.73;2.95;;;;;;;;;;5058760;28;20029;-77
2022/10/08 00:43:39;;;;;;;11.93;2.90;;;;;;;;;;5038837;28;20028;-76
2022/10/08 00:46:06;;;;;;;8.13;3.45;;;;;;;;;;5044535;28;20056;-76
2022/10/08 00:48:32;;;;;;;17.55;3.30;;;;;;;;;;5048262;28;20028;-75
2022/10/08 00:50:58;;;;;;;8.18;2.80;;;;;;;;;;5073489;28;20024;-75
2022/10/08 00:53:24;;;;;;;6.07;2.85;;;;;;;;;;5083209;28;20036;-76
2022/10/08 00:55:50;;;;;;;12.70;3.13;;;;;;;;;;5057600;28;20021;-76
2022/10/08 00:58:19;;;;;;;10.95;3.15;;;;;;;;;;5063560;28;20027;-75
2022/10/08 01:00:47;;;;;;;11.23;4.50;;;;;;;;;;5074580;28;20052;-75
2022/10/08 01:03:13;;;;;;;11.38;3.97;;;;;;;;;;5062551;28;20640;-75
2022/10/08 01:05:48;;;;;;;8.93;3.53;;;;;;;;;;5054850;28;20656;-76
2022/10/08 01:08:25;;;;;;;6.95;2.63;;;;;;;;;;5044395;28;20032;-75
2022/10/08 01:10:57;;;;;;;13.30;3.05;;;;;;;;;;5054405;28;20663;-75
2022/10/08 01:13:24;;;;;;;13.43;4.18;;;;;;;;;;5057306;28;20021;-75
2022/10/08 01:16:09;;;;;;;14.23;3.03;;;;;;;;;;5061071;28;20020;-76
2022/10/08 01:18:46;;;;;;;11.57;3.17;;;;;;;;;;5058383;28;20036;-75
2022/10/08 01:21:14;;;;;;;7.55;2.85;;;;;;;;;;5055435;28;20128;-75
2022/10/08 01:23:47;;;;;;;12.65;3.95;;;;;;;;;;5061119;28;20060;-75
2022/10/08 01:26:29;;;;;;;13.25;2.97;;;;;;;;;;5068328;28;20032;-76
2022/10/08 01:28:58;;;;;;;5.57;3.03;;;;;;;;;;5062661;28;20152;-75
2022/10/08 01:31:29;;;;;;;8.98;3.20;;;;;;;;;;5064778;28;20031;-76
2022/10/08 01:34:11;;;;;;;9.55;3.03;;;;;;;;;;5060264;28;20024;-76
2022/10/08 01:36:40;;;;;;;9.25;3.22;;;;;;;;;;5046557;28;20032;-76
2022/10/08 01:39:08;;;;;;;11.50;3.92;;;;;;;;;;5064216;28;20121;-76
2022/10/08 01:41:34;;;;;;;10.77;3.05;;;;;;;;;;5061315;28;20024;-76
2022/10/08 01:44:22;;;;;;;13.57;3.38;;;;;;;;;;5067214;28;20028;-76
2022/10/08 01:46:49;;;;;;;8.55;3.03;;;;;;;;;;5060599;28;20023;-75
2022/10/08 01:49:18;;;;;;;9.40;2.97;;;;;;;;;;5061767;28;20058;-75
2022/10/08 01:51:49;;;;;;;9.65;2.95;;;;;;;;;;5060096;28;20080;-75
2022/10/08 01:54:16;;;;;;;10.60;3.17;;;;;;;;;;5061114;28;20066;-76
2022/10/08 01:56:44;;;;;;;8.00;3.13;;;;;;;;;;5060715;28;20067;-76
2022/10/08 01:59:23;;;;;;;7.38;3.60;;;;;;;;;;5071010;28;20059;-76
2022/10/08 02:01:58;;;;;;;9.13;2.67;;;;;;;;;;5060128;28;20022;-75
2022/10/08 02:04:32;;;;;;;7.60;3.08;;;;;;;;;;5054519;28;20032;-75
2022/10/08 02:06:59;;;;;;;7.40;2.80;;;;;;;;;;5065449;28;20035;-75
2022/10/08 02:09:26;;;;;;;12.10;3.72;;;;;;;;;;5041559;28;20024;-75
2022/10/08 02:11:52;;;;;;;10.57;3.08;;;;;;;;;;5068309;28;20035;-75
2022/10/08 02:14:19;;;;;;;8.68;3.72;;;;;;;;;;5068145;28;20024;-76
2022/10/08 02:16:51;;;;;;;8.75;2.78;;;;;;;;;;5053305;28;20029;-76
2022/10/08 02:19:36;;;;;;;9.88;3.20;;;;;;;;;;5048363;28;20072;-75
2022/10/08 02:22:06;;;;;;;11.25;4.05;;;;;;;;;;5048336;28;20050;-75
2022/10/08 02:24:42;;;;;;;8.57;3.45;;;;;;;;;;5071784;28;20020;-75
2022/10/08 02:27:10;;;;;;;10.15;3.72;;;;;;;;;;5063184;28;20040;-76
2022/10/08 02:29:38;;;;;;;9.10;2.65;;;;;;;;;;5046729;28;20028;-76
2022/10/08 02:32:08;;;;;;;11.88;4.10;;;;;;;;;;5044562;28;20033;-76
2022/10/08 02:34:38;;;;;;;10.88;3.05;;;;;;;;;;5063988;28;20032;-76
2022/10/08 02:37:07;;;;;;;10.40;4.28;;;;;;;;;;5049052;28;20039;-75
2022/10/08 02:39:35;;;;;;;8.80;3.10;;;;;;;;;;5048081;28;20024;-76
2022/10/08 02:42:03;;;;;;;9.82;2.92;;;;;;;;;;5062815;28;20059;-76
2022/10/08 02:44:34;;;;;;;8.32;3.35;;;;;;;;;;5076141;28;20024;-75
2022/10/08 02:47:02;;;;;;;14.57;3.30;;;;;;;;;;5078483;28;20555;-76
2022/10/08 02:49:33;;;;;;;7.00;2.88;;;;;;;;;;5076181;28;20146;-75
2022/10/08 02:52:00;;;;;;;11.75;4.45;;;;;;;;;;5071496;28;20021;-75
2022/10/08 02:54:29;;;;;;;7.82;2.75;;;;;;;;;;5060893;28;20053;-75
2022/10/08 02:56:59;;;;;;;11.50;3.10;;;;;;;;;;5062682;28;20478;-75
2022/10/08 02:59:25;;;;;;;12.15;3.45;;;;;;;;;;5046788;28;20104;-75
2022/10/08 03:02:01;;;;;;;9.65;2.90;;;;;;;;;;5068925;28;20029;-76
2022/10/08 03:04:33;;;;;;;12.57;3.90;;;;;;;;;;5066697;28;20131;-75
2022/10/08 03:07:00;;;;;;;8.60;2.90;;;;;;;;;;5048186;28;20119;-75
2022/10/08 03:09:30;;;;;;;8.35;2.80;;;;;;;;;;5064607;28;20033;-75
2022/10/08 03:11:57;;;;;;;9.48;2.90;;;;;;;;;;5071491;28;20027;-75
2022/10/08 03:14:24;;;;;;;8.82;3.28;;;;;;;;;;5065828;28;20063;-75
2022/10/08 03:16:50;;;;;;;4.68;2.25;;;;;;;;;;5077990;28;20025;-75
2022/10/08 03:19:17;;;;;;;13.73;3.63;;;;;;;;;;5059601;28;20032;-75
2022/10/08 03:21:45;;;;;;;7.20;3.25;;;;;;;;;;5075402;28;20453;-75
2022/10/08 03:24:12;;;;;;;17.17;3.30;;;;;;;;;;5071708;28;20736;-75
2022/10/08 03:26:38;;;;;;;12.07;2.92;;;;;;;;;;5053856;28;20021;-75
2022/10/08 03:29:05;;;;;;;14.02;3.47;;;;;;;;;;5082762;28;20033;-75
2022/10/08 03:31:32;;;;;;;13.30;4.15;;;;;;;;;;5052721;28;20072;-75
2022/10/08 03:33:58;;;;;;;6.63;2.90;;;;;;;;;;5058253;28;20024;-75
2022/10/08 03:36:25;;;;;;;10.27;3.00;;;;;;;;;;5051553;28;20035;-75
2022/10/08 03:38:51;;;;;;;7.63;3.65;;;;;;;;;;5068715;28;20405;-75
2022/10/08 03:41:18;;;;;;;4.13;3.05;;;;;;;;;;5071678;28;20029;-75
2022/10/08 03:43:44;;;;;;;8.77;2.88;;;;;;;;;;5054374;28;20028;-75
2022/10/08 03:46:11;;;;;;;10.07;4.00;;;;;;;;;;5063897;28;20032;-74
2022/10/08 03:48:38;;;;;;;10.95;2.85;;;;;;;;;;5050621;28;20024;-75
2022/10/08 03:51:13;;;;;;;11.25;2.53;;;;;;;;;;5046255;28;20079;-75
2022/10/08 03:53:41;;;;;;;10.07;3.45;;;;;;;;;;5065910;28;20497;-75
2022/10/08 03:56:08;;;;;;;9.55;3.85;;;;;;;;;;5050998;28;20043;-76
2022/10/08 03:58:34;;;;;;;14.82;3.22;;;;;;;;;;5067742;28;20039;-75
2022/10/08 04:01:02;;;;;;;12.77;3.15;;;;;;;;;;5069755;28;20028;-75
2022/10/08 04:03:29;;;;;;;11.52;3.13;;;;;;;;;;5058197;28;20032;-76
2022/10/08 04:05:55;;;;;;;8.25;3.67;;;;;;;;;;5066754;28;20096;-76
2022/10/08 04:08:22;;;;;;;12.75;3.72;;;;;;;;;;5071074;28;20075;-76
2022/10/08 04:10:48;;;;;;;9.70;3.00;;;;;;;;;;5062327;28;20025;-76
2022/10/08 04:13:14;;;;;;;9.23;3.33;;;;;;;;;;5070383;28;20025;-75
2022/10/08 04:15:41;;;;;;;10.73;3.45;;;;;;;;;;5073236;28;20990;-75
2022/10/08 04:18:08;;;;;;;8.25;3.10;;;;;;;;;;5071328;28;20501;-75
2022/10/08 04:20:34;;;;;;;11.88;3.83;;;;;;;;;;5068929;28;20035;-75
2022/10/08 04:23:00;;;;;;;11.65;3.13;;;;;;;;;;5064895;28;20075;-75
2022/10/08 04:25:26;;;;;;;6.20;2.60;;;;;;;;;;5063505;28;20094;-75
2022/10/08 04:27:52;;;;;;;10.15;4.10;;;;;;;;;;5081501;28;20032;-76
2022/10/08 04:30:18;;;;;;;12.52;3.20;;;;;;;;;;5067142;28;20465;-75
2022/10/08 04:32:44;;;;;;;14.02;3.60;;;;;;;;;;5049541;28;20118;-75
2022/10/08 04:35:10;;;;;;;12.68;3.28;;;;;;;;;;5060315;28;20036;-75
2022/10/08 04:37:36;;;;;;;8.45;2.78;;;;;;;;;;5066604;28;20110;-76
2022/10/08 04:40:02;;;;;;;8.43;2.75;;;;;;;;;;5064942;28;20688;-76
2022/10/08 04:42:29;;;;;;;11.80;3.38;;;;;;;;;;5048947;28;20070;-75
2022/10/08 04:44:55;;;;;;;8.85;3.78;;;;;;;;;;5062433;28;20037;-75
2022/10/08 04:47:21;;;;;;;9.00;3.08;;;;;;;;;;5062583;28;20052;-75
2022/10/08 04:49:47;;;;;;;6.13;2.72;;;;;;;;;;5048189;28;20033;-76
2022/10/08 04:52:15;;;;;;;8.20;3.85;;;;;;;;;;5070700;28;20063;-75
2022/10/08 04:54:41;;;;;;;12.65;3.53;;;;;;;;;;5063851;28;20021;-76
2022/10/08 04:57:07;;;;;;;12.52;2.95;;;;;;;;;;5051431;28;20036;-75
2022/10/08 04:59:33;;;;;;;13.57;4.68;;;;;;;;;;5080334;28;20032;-75
2022/10/08 05:02:00;;;;;;;7.90;2.90;;;;;;;;;;5064777;28;20024;-75
2022/10/08 05:04:26;;;;;;;6.93;3.05;;;;;;;;;;5061201;28;20028;-75
2022/10/08 05:06:52;;;;;;;14.80;3.15;;;;;;;;;;5069735;28;20366;-76
2022/10/08 05:09:18;;;;;;;22.50;3.65;;;;;;;;;;5064519;28;20045;-76
2022/10/08 05:11:44;;;;;;;11.75;3.28;;;;;;;;;;5066733;28;20028;-75
2022/10/08 05:14:10;;;;;;;10.23;3.20;;;;;;;;;;5069919;28;20024;-75
2022/10/08 05:16:36;;;;;;;13.07;3.35;;;;;;;;;;5059490;28;20203;-75
2022/10/08 05:19:03;;;;;;;10.93;3.55;;;;;;;;;;5082330;28;20029;-75
2022/10/08 05:21:31;;;;;;;11.57;2.97;;;;;;;;;;5049401;28;20052;-75
2022/10/08 05:23:58;;;;;;;10.48;3.55;;;;;;;;;;5051434;28;20045;-75
2022/10/08 05:26:25;;;;;;;16.10;4.70;;;;;;;;;;5045067;28;20499;-75
2022/10/08 05:28:56;;;;;;;6.65;3.72;;;;;;;;;;5062585;28;20120;-74
2022/10/08 05:31:23;;;;;;;9.43;3.20;;;;;;;;;;5055966;28;20024;-76
2022/10/08 05:33:49;;;;;;;8.05;2.60;;;;;;;;;;5067415;28;20477;-76
2022/10/08 05:36:16;;;;;;;12.35;3.33;;;;;;;;;;5053250;28;20037;-75
2022/10/08 05:38:42;;;;;;;17.52;4.15;;;;;;;;;;5052598;28;20024;-75
2022/10/08 05:41:13;;;;;;;8.98;3.13;;;;;;;;;;5048621;28;20067;-76
2022/10/08 05:43:39;;;;;;;10.93;4.05;;;;;;;;;;5058754;28;20040;-76
2022/10/08 05:46:06;;;;;;;12.32;4.32;;;;;;;;;;5051316;28;20043;-76
2022/10/08 05:48:32;;;;;;;10.73;3.25;;;;;;;;;;5048432;28;20028;-76
2022/10/08 05:51:04;;;;;;;13.45;3.83;;;;;;;;;;5049904;28;20033;-76
2022/10/08 05:53:31;;;;;;;9.52;4.45;;;;;;;;;;5075220;28;20153;-76
2022/10/08 05:56:05;;;;;;;7.47;3.30;;;;;;;;;;5065777;28;20480;-76
2022/10/08 05:58:32;;;;;;;15.57;3.30;;;;;;;;;;5063531;28;20474;-75
2022/10/08 06:01:06;;;;;;;10.05;3.22;;;;;;;;;;5070666;28;20031;-76
2022/10/08 06:03:32;;;;;;;13.15;3.50;;;;;;;;;;5060976;28;20481;-76
2022/10/08 06:06:02;;;;;;;10.50;2.85;;;;;;;;;;5074478;28;20033;-77
2022/10/08 06:08:28;;;;;;;11.55;2.97;;;;;;;;;;5064914;28;20485;-76
2022/10/08 06:10:54;;;;;;;11.93;3.72;;;;;;;;;;5069313;28;20469;-76
2022/10/08 06:13:21;;;;;;;10.98;3.90;;;;;;;;;;5052140;28;20648;-77
2022/10/08 06:15:57;;;;;;;13.68;3.83;;;;;;;;;;5082036;28;20044;-76
2022/10/08 06:18:24;;;;;;;11.68;3.42;;;;;;;;;;5062747;28;20029;-76
2022/10/08 06:20:50;;;;;;;10.23;3.47;;;;;;;;;;5061032;28;20021;-77
2022/10/08 06:23:17;;;;;;;10.73;3.30;;;;;;;;;;5068439;28;20032;-76
2022/10/08 06:25:43;;;;;;;10.93;3.05;;;;;;;;;;5073559;28;20031;-76
2022/10/08 06:28:09;;;;;;;10.63;3.78;;;;;;;;;;5065870;28;20032;-77
2022/10/08 06:30:36;;;;;;;11.27;4.05;;;;;;;;;;5069352;28;20122;-75
2022/10/08 06:33:02;;;;;;;11.60;3.10;;;;;;;;;;5067423;28;20020;-77
2022/10/08 06:35:29;;;;;;;13.55;3.20;;;;;;;;;;5072897;28;20032;-76
2022/10/08 06:37:55;;;;;;;12.35;3.53;;;;;;;;;;5070143;28;20039;-76
2022/10/08 06:40:21;;;;;;;11.65;3.10;;;;;;;;;;5051759;28;20505;-76
2022/10/08 06:42:47;;;;;;;10.07;3.58;;;;;;;;;;5086925;28;20061;-77
2022/10/08 06:45:13;;;;;;;13.10;3.67;;;;;;;;;;5060586;28;20082;-77
2022/10/08 06:47:40;;;;;;;17.05;3.10;;;;;;;;;;5065752;28;20045;-77
2022/10/08 06:50:06;;;;;;;11.68;3.10;;;;;;;;;;5058098;28;20115;-76
2022/10/08 06:52:32;;;;;;;10.15;3.53;;;;;;;;;;5066363;28;20017;-77
2022/10/08 06:54:58;;;;;;;6.80;2.58;;;;;;;;;;5078863;28;20104;-77
2022/10/08 06:57:24;;;;;;;9.57;3.33;;;;;;;;;;5065538;28;20036;-77
2022/10/08 06:59:53;;;;;;;8.70;3.45;;;;;;;;;;5070126;28;20031;-77
2022/10/08 07:02:19;;;;;;;13.70;3.05;;;;;;;;;;5079010;28;20059;-77
2022/10/08 07:04:46;;;;;;;7.03;2.95;;;;;;;;;;5051809;28;20028;-77
2022/10/08 07:07:12;;;;;;;9.90;3.28;;;;;;;;;;5075944;28;20033;-76
2022/10/08 07:09:38;;;;;;;7.38;3.53;;;;;;;;;;5071816;28;20153;-76
2022/10/08 07:12:04;;;;;;;11.15;4.35;;;;;;;;;;5046625;28;20024;-76
2022/10/08 07:14:30;;;;;;;13.35;3.42;;;;;;;;;;5070292;28;20116;-76
2022/10/08 07:16:57;;;;;;;8.00;2.88;;;;;;;;;;5073061;28;20032;-76
2022/10/08 07:19:23;;;;;;;10.63;3.63;;;;;;;;;;5054128;28;20500;-77
2022/10/08 07:21:49;;;;;;;14.30;4.30;;;;;;;;;;5055444;28;20052;-77
2022/10/08 07:24:16;;;;;;;13.18;3.47;;;;;;;;;;5069223;28;20435;-76
2022/10/08 07:26:42;;;;;;;11.70;3.42;;;;;;;;;;5058279;28;20024;-76
2022/10/08 07:29:12;;;;;;;6.78;3.67;;;;;;;;;;5052162;28;20032;-76
2022/10/08 07:31:38;;;;;;;14.40;3.53;;;;;;;;;;5071064;28;20032;-77
2022/10/08 07:34:06;;;;;;;8.07;3.05;;;;;;;;;;5050847;28;20623;-76
2022/10/08 07:36:32;;;;;;;9.35;3.35;;;;;;;;;;5066397;28;20028;-78
2022/10/08 07:39:00;;;;;;;8.93;2.97;;;;;;;;;;5082511;28;20020;-77
2022/10/08 07:41:26;;;;;;;14.02;3.72;;;;;;;;;;5047019;28;20039;-76
2022/10/08 07:43:54;;;;;;;9.38;3.55;;;;;;;;;;5055518;28;20024;-76
2022/10/08 07:46:20;;;;;;;6.93;3.15;;;;;;;;;;5049303;28;20079;-76
2022/10/08 07:48:46;;;;;;;10.95;3.38;;;;;;;;;;5050919;28;20032;-77
2022/10/08 07:51:14;;;;;;;12.60;4.47;;;;;;;;;;5066100;28;20029;-77
2022/10/08 07:53:40;;;;;;;11.07;3.50;;;;;;;;;;5068596;28;20024;-77
2022/10/08 07:56:07;;;;;;;10.35;3.30;;;;;;;;;;5072807;28;20035;-76
2022/10/08 07:58:34;;;;;;;9.57;3.90;;;;;;;;;;5069751;28;20024;-77
2022/10/08 08:01:02;;;;;;;8.48;3.17;;;;;;;;;;5050105;28;20469;-77
2022/10/08 08:03:28;;;;;;;9.15;3.58;;;;;;;;;;5053253;28;20105;-76
2022/10/08 08:05:59;;;;;;;9.35;2.97;;;;;;;;;;5068503;28;20409;-77
2022/10/08 08:08:26;;;;;;;10.00;4.07;;;;;;;;;;5068368;28;20058;-77
2022/10/08 08:10:59;;;;;;;10.68;3.92;;;;;;;;;;5065534;28;20032;-77
2022/10/08 08:13:25;;;;;;;12.20;3.67;;;;;;;;;;5069079;28;20028;-77
2022/10/08 08:15:58;;;;;;;16.17;4.00;;;;;;;;;;5050783;28;20029;-77
2022/10/08 08:18:27;;;;;;;14.35;6.20;;;;;;;;;;5064921;28;20028;-77
2022/10/08 08:21:04;;;;;;;7.60;3.28;;;;;;;;;;5068868;28;20043;-76
2022/10/08 08:23:34;;;;;;;10.00;3.88;;;;;;;;;;5067737;28;20032;-77
2022/10/08 08:26:01;;;;;;;10.90;4.90;;;;;;;;;;5069600;28;20813;-77
2022/10/08 08:28:27;;;;;;;15.98;4.50;;;;;;;;;;5051514;28;20020;-77
2022/10/08 08:30:56;;;;;;;10.23;3.33;;;;;;;;;;5061201;28;20039;-77
2022/10/08 08:33:22;;;;;;;11.52;4.20;;;;;;;;;;5064637;28;20024;-77
2022/10/08 08:35:54;;;;;;;11.98;3.47;;;;;;;;;;5054113;28;20045;-77
2022/10/08 08:38:20;;;;;;;14.13;4.25;;;;;;;;;;5065931;28;20032;-77
2022/10/08 08:40:47;;;;;;;13.32;3.85;;;;;;;;;;5050032;28;20086;-80
2022/10/08 08:43:13;;;;;;;12.75;3.38;;;;;;;;;;5067482;28;20048;-77
2022/10/08 08:45:40;;;;;;;9.80;3.75;;;;;;;;;;5070271;28;20039;-77
2022/10/08 08:48:21;;;;;;;10.27;4.28;;;;;;;;;;5052450;28;20032;-76
2022/10/08 08:50:49;;;;;;;6.28;3.75;;;;;;;;;;5046135;28;20115;-77
2022/10/08 08:53:16;;;;;;;9.52;3.00;;;;;;;;;;5068001;28;20024;-77
2022/10/08 08:55:44;;;;;;;10.63;3.88;;;;;;;;;;5064310;28;20035;-77
2022/10/08 08:58:22;;;;;;;15.13;4.00;;;;;;;;;;5063124;28;20036;-77
2022/10/08 09:00:54;;;;;;;13.93;4.78;;;;;;;;;;5078716;28;20024;-77
2022/10/08 09:03:33;;;;;;;11.23;4.38;;;;;;;;;;5063990;28;20036;-77
2022/10/08 09:06:02;;;;;;;11.98;3.17;;;;;;;;;;5067366;28;20165;-77
2022/10/08 09:08:34;;;;;;;12.32;4.60;;;;;;;;;;5069943;28;20016;-77
2022/10/08 09:11:02;;;;;;;13.60;4.40;;;;;;;;;;5066404;28;20114;-77
2022/10/08 09:13:41;;;;;;;11.73;3.20;;;;;;;;;;5063659;28;20103;-77
2022/10/08 09:16:10;;;;;;;15.05;4.10;;;;;;;;;;5064194;28;20029;-77
2022/10/08 09:18:37;;;;;;;10.52;4.35;;;;;;;;;;5046229;28;20428;-77
2022/10/08 09:21:04;;;;;;;10.35;4.63;;;;;;;;;;5065809;28;20079;-77
2022/10/08 09:23:30;;;;;;;10.93;3.60;;;;;;;;;;5067418;28;20020;-77
2022/10/08 09:26:05;;;;;;;10.93;3.95;;;;;;;;;;5067168;28;20021;-77
2022/10/08 09:28:39;;;;;;;14.15;6.40;;;;;;;;;;5066415;28;20774;-77
2022/10/08 09:31:20;;;;;;;13.52;4.90;;;;;;;;;;5064981;28;20511;-77
2022/10/08 09:33:54;;;;;;;12.55;4.85;;;;;;;;;;5063453;28;20516;-76
2022/10/08 09:36:32;;;;;;;22.25;9.93;;;;;;;;;;5046920;28;20063;-77
2022/10/08 09:38:59;;;;;;;13.35;4.00;;;;;;;;;;5062163;28;20028;-77
2022/10/08 09:41:29;;;;;;;6.20;3.15;;;;;;;;;;5052882;28;20039;-77
2022/10/08 09:44:15;;;;;;;7.65;3.25;;;;;;;;;;5048322;28;20085;-77
2022/10/08 09:46:41;;;;;;;5.47;2.47;;;;;;;;;;5066923;28;20671;-77
2022/10/08 09:49:23;;;;;;;7.57;2.88;;;;;;;;;;5047873;28;20106;-77
2022/10/08 09:51:49;;;;;;;6.32;2.80;;;;;;;;;;5064715;28;20034;-77
2022/10/08 09:54:19;;;;;;;8.15;2.78;;;;;;;;;;5049230;28;20035;-77
2022/10/08 09:56:51;;;;;;;8.02;3.70;;;;;;;;;;5065270;28;20679;-77
2022/10/08 09:59:19;;;;;;;10.48;5.15;;;;;;;;;;5061983;28;20032;-78
2022/10/08 10:01:46;;;;;;;13.95;5.38;;;;;;;;;;5063021;28;20051;-77
2022/10/08 10:04:29;;;;;;;10.50;4.28;;;;;;;;;;5045243;28;20021;-77
2022/10/08 10:06:55;;;;;;;5.25;2.55;;;;;;;;;;5067958;28;20827;-77
2022/10/08 10:09:27;;;;;;;11.80;5.35;;;;;;;;;;5058027;28;20025;-76
2022/10/08 10:11:56;;;;;;;10.60;3.10;;;;;;;;;;5062840;28;20059;-77
2022/10/08 10:14:22;;;;;;;10.70;3.03;;;;;;;;;;5066250;28;20138;-77
2022/10/08 10:16:52;;;;;;;8.63;2.28;;;;;;;;;;5071273;28;20098;-77
2022/10/08 10:19:21;;;;;;;9.68;2.75;;;;;;;;;;5067635;28;20044;-76
2022/10/08 10:21:51;;;;;;;7.03;2.47;;;;;;;;;;5053635;28;20783;-76
2022/10/08 10:24:36;;;;;;;7.72;2.85;;;;;;;;;;5072905;28;20033;-76
2022/10/08 10:27:07;;;;;;;8.02;2.78;;;;;;;;;;5047189;28;20131;-76
2022/10/08 10:29:40;;;;;;;7.97;2.95;;;;;;;;;;5051281;28;20092;-76
2022/10/08 10:32:14;;;;;;;7.20;2.58;;;;;;;;;;5052550;28;20021;-76
2022/10/08 10:34:42;;;;;;;7.45;3.13;;;;;;;;;;5067837;28;20039;-77
2022/10/08 10:37:11;;;;;;;5.65;2.35;;;;;;;;;;5048921;28;20036;-76
2022/10/08 10:39:37;;;;;;;34.08;16.35;;;;;;;;;;5067643;28;20036;-77
2022/10/08 10:42:10;;;;;;;11.73;3.45;;;;;;;;;;5066203;28;20098;-77
2022/10/08 10:44:51;;;;;;;5.55;3.08;;;;;;;;;;5066067;28;20060;-77
2022/10/08 10:47:20;;;;;;;6.00;2.92;;;;;;;;;;5083285;28;20115;-77
2022/10/08 10:49:46;;;;;;;7.78;2.88;;;;;;;;;;5053186;28;20425;-78
2022/10/08 10:52:21;;;;;;;6.38;2.53;;;;;;;;;;5072982;28;20021;-79
2022/10/08 10:55:03;;;;;;;7.13;2.70;;;;;;;;;;5072453;28;20024;-76
2022/10/08 10:57:41;;;;;;;5.13;2.65;;;;;;;;;;5050617;28;20158;-80
2022/10/08 11:00:17;;;;;;;10.85;2.78;;;;;;;;;;5074643;28;20036;-78
2022/10/08 11:02:47;;;;;;;6.25;2.85;;;;;;;;;;5069546;28;20096;-77
2022/10/08 11:05:13;;;;;;;8.07;3.20;;;;;;;;;;5049834;28;20393;-78
2022/10/08 11:07:50;;;;;;;8.45;2.45;;;;;;;;;;5068910;28;20039;-76
2022/10/08 11:10:24;;;;;;;8.40;2.35;;;;;;;;;;5063076;28;20028;-77
2022/10/08 11:12:59;;;;;;;5.97;2.95;;;;;;;;;;5066569;28;20111;-78
2022/10/08 11:15:28;;;;;;;12.18;4.25;;;;;;;;;;5052551;28;20048;-77
2022/10/08 11:18:13;;;;;;;5.05;2.95;;;;;;;;;;5052915;28;20037;-76
2022/10/08 11:20:39;;;;;;;8.37;3.20;;;;;;;;;;5068722;28;20064;-77
2022/10/08 11:23:24;;;;;;;15.15;3.03;;;;;;;;;;5052190;28;20139;-77
2022/10/08 11:26:05;;;;;;;8.57;3.10;;;;;;;;;;5069365;28;20035;-86
2022/10/08 11:28:43;;;;;;;7.95;2.72;;;;;;;;;;5057260;28;20275;-81
2022/10/08 11:31:28;;;;;;;10.98;3.50;;;;;;;;;;5069952;28;20036;-78
2022/10/08 11:33:55;;;;;;;6.32;2.22;;;;;;;;;;5064250;28;20504;-77
2022/10/08 11:36:40;;;;;;;8.05;2.80;;;;;;;;;;5062934;28;20074;-76
2022/10/08 11:39:09;;;;;;;9.70;3.40;;;;;;;;;;5041554;28;21865;-78
2022/10/08 11:41:35;;;;;;;7.05;2.40;;;;;;;;;;5050690;28;20596;-76
2022/10/08 11:44:03;;;;;;;8.40;2.90;;;;;;;;;;5062279;28;20036;-78
2022/10/08 11:46:35;;;;;;;18.13;8.80;;;;;;;;;;5050411;28;20084;-76
2022/10/08 11:49:11;;;;;;;7.00;2.88;;;;;;;;;;5070709;28;20035;-77
2022/10/08 11:51:38;;;;;;;6.20;2.85;;;;;;;;;;5066061;28;20029;-74
2022/10/08 11:54:13;;;;;;;5.57;3.17;;;;;;;;;;5056062;28;20033;-77
2022/10/08 11:56:50;;;;;;;12.35;4.93;;;;;;;;;;5055158;28;20033;-77
2022/10/08 11:59:34;;;;;;;5.80;2.80;;;;;;;;;;5050691;28;20584;-78
2022/10/08 12:02:01;;;;;;;6.57;3.00;;;;;;;;;;5067106;28;20021;-77
2022/10/08 12:04:33;;;;;;;5.80;2.58;;;;;;;;;;5063182;28;20478;-78
2022/10/08 12:07:01;;;;;;;4.80;2.25;;;;;;;;;;5063076;28;20407;-78
2022/10/08 12:09:47;;;;;;;5.47;2.33;;;;;;;;;;5059145;28;20025;-78
2022/10/08 12:12:13;;;;;;;7.18;2.60;;;;;;;;;;5067152;28;20025;-78
2022/10/08 12:14:44;;;;;;;9.60;3.28;;;;;;;;;;5075422;28;20119;-77
2022/10/08 12:17:11;;;;;;;5.53;2.60;;;;;;;;;;5052073;28;20054;-78
2022/10/08 12:19:37;;;;;;;11.07;3.10;;;;;;;;;;5049175;28;20755;-78
2022/10/08 12:22:04;;;;;;;5.30;2.40;;;;;;;;;;5071545;28;20044;-78
2022/10/08 12:24:36;;;;;;;5.90;2.60;;;;;;;;;;5071696;28;20039;-78
2022/10/08 12:27:17;;;;;;;7.60;2.70;;;;;;;;;;5061514;28;20040;-78
2022/10/08 12:30:02;;;;;;;6.25;2.03;;;;;;;;;;5063710;28;20867;-78
2022/10/08 12:32:33;;;;;;;5.07;2.50;;;;;;;;;;5045348;28;20029;-77
2022/10/08 12:35:00;;;;;;;7.05;2.40;;;;;;;;;;5065236;28;20056;-78
2022/10/08 12:37:41;;;;;;;7.65;3.17;;;;;;;;;;5067915;28;20106;-78
2022/10/08 12:40:31;;;;;;;8.65;2.78;;;;;;;;;;5052897;28;20074;-78
2022/10/08 12:43:05;;;;;;;6.00;2.75;;;;;;;;;;5056660;28;20053;-77
2022/10/08 12:45:36;;;;;;;6.30;2.50;;;;;;;;;;5067121;28;20052;-78
2022/10/08 12:48:20;;;;;;;6.57;2.40;;;;;;;;;;5070597;28;20043;-78
2022/10/08 12:50:46;;;;;;;8.73;2.70;;;;;;;;;;5067910;28;20103;-77
2022/10/08 12:53:14;;;;;;;8.93;2.50;;;;;;;;;;5065863;28;20019;-78
2022/10/08 12:55:48;;;;;;;7.35;3.20;;;;;;;;;;5074919;28;20406;-78
2022/10/08 12:58:16;;;;;;;5.22;2.72;;;;;;;;;;5067153;28;20032;-78
2022/10/08 13:00:42;;;;;;;10.55;3.25;;;;;;;;;;5060523;28;20039;-78
2022/10/08 13:03:16;;;;;;;9.95;4.30;;;;;;;;;;5068556;28;20401;-78
2022/10/08 13:05:43;;;;;;;12.00;5.40;;;;;;;;;;5070256;28;20028;-77
2022/10/08 13:08:18;;;;;;;5.13;3.00;;;;;;;;;;5070248;28;20063;-78
2022/10/08 13:10:44;;;;;;;12.90;4.65;;;;;;;;;;5049106;28;20020;-78
2022/10/08 13:13:29;;;;;;;6.45;3.28;;;;;;;;;;5063984;28;20040;-77
2022/10/08 13:15:58;;;;;;;7.95;2.55;;;;;;;;;;5067868;28;20020;-77
2022/10/08 13:18:24;;;;;;;6.20;2.53;;;;;;;;;;5080010;28;20043;-77
2022/10/08 13:20:58;;;;;;;9.98;4.28;;;;;;;;;;5057146;28;20021;-76
2022/10/08 13:23:35;;;;;;;6.85;2.78;;;;;;;;;;5045878;28;20504;-77
2022/10/08 13:26:01;;;;;;;4.95;3.05;;;;;;;;;;5049118;28;20073;-77
2022/10/08 13:28:27;;;;;;;3.88;2.50;;;;;;;;;;5051319;28;20028;-77
2022/10/08 13:30:56;;;;;;;7.70;3.33;;;;;;;;;;5052352;28;20036;-76
2022/10/08 13:33:24;;;;;;;7.15;2.42;;;;;;;;;;5070869;28;20028;-77
2022/10/08 13:35:55;;;;;;;9.73;2.50;;;;;;;;;;5081298;28;20036;-77
2022/10/08 13:38:23;;;;;;;9.52;3.38;;;;;;;;;;5054447;28;20028;-77
2022/10/08 13:40:53;;;;;;;5.80;2.47;;;;;;;;;;5073547;28;20548;-78
2022/10/08 13:43:20;;;;;;;4.93;2.20;;;;;;;;;;5067964;28;20032;-77
2022/10/08 13:45:46;;;;;;;8.10;2.70;;;;;;;;;;5067183;28;20500;-77
2022/10/08 13:48:12;;;;;;;7.47;3.15;;;;;;;;;;5078061;28;20139;-77
2022/10/08 13:50:50;;;;;;;5.13;2.45;;;;;;;;;;5053415;28;20107;-77
2022/10/08 13:53:19;;;;;;;8.52;2.92;;;;;;;;;;5050306;28;20085;-77
2022/10/08 13:55:46;;;;;;;6.32;3.20;;;;;;;;;;5072698;28;20080;-77
2022/10/08 13:58:13;;;;;;;5.20;2.35;;;;;;;;;;5067361;28;20036;-77
2022/10/08 14:00:40;;;;;;;6.38;3.15;;;;;;;;;;5047075;28;20048;-77
2022/10/08 14:03:06;;;;;;;6.95;2.70;;;;;;;;;;5055494;28;20043;-77
2022/10/08 14:05:34;;;;;;;7.45;3.30;;;;;;;;;;5058459;28;20432;-77
2022/10/08 14:08:01;;;;;;;4.13;2.17;;;;;;;;;;5062960;28;20031;-77
2022/10/08 14:10:28;;;;;;;4.03;2.35;;;;;;;;;;5052263;28;20025;-77
2022/10/08 14:12:54;;;;;;;5.30;2.13;;;;;;;;;;5050157;28;20397;-76
2022/10/08 14:15:20;;;;;;;4.30;2.38;;;;;;;;;;5075879;28;20029;-77
2022/10/08 14:17:48;;;;;;;5.50;2.85;;;;;;;;;;5046814;28;20052;-77
2022/10/08 14:20:14;;;;;;;4.85;2.13;;;;;;;;;;5065560;28;20040;-77
2022/10/08 14:22:40;;;;;;;8.38;3.63;;;;;;;;;;5071505;28;20519;-76
2022/10/08 14:25:15;;;;;;;13.52;8.02;;;;;;;;;;5051273;28;20033;-77
2022/10/08 14:27:41;;;;;;;17.48;9.85;;;;;;;;;;5058650;28;20029;-77
2022/10/08 14:30:09;;;;;;;5.93;3.83;;;;;;;;;;5052571;28;20032;-77
2022/10/08 14:32:35;;;;;;;11.63;8.45;;;;;;;;;;5049660;28;20128;-77
2022/10/08 14:35:01;;;;;;;8.35;2.75;;;;;;;;;;5068027;28;20043;-76
2022/10/08 14:37:27;;;;;;;6.68;3.45;;;;;;;;;;5079465;28;20025;-77
2022/10/08 14:39:54;;;;;;;5.50;3.03;;;;;;;;;;5049748;28;20064;-77
2022/10/08 14:42:20;;;;;;;6.63;3.45;;;;;;;;;;5068249;28;20041;-77
2022/10/08 14:44:46;;;;;;;7.15;2.03;;;;;;;;;;5070160;28;20029;-77
2022/10/08 14:47:13;;;;;;;7.15;2.65;;;;;;;;;;5069715;28;20029;-77
2022/10/08 14:49:39;;;;;;;5.45;2.15;;;;;;;;;;5059400;28;20021;-77